X  Luk Metar data        LGTS Thessaloniki Macedonia International
Temperatur
15°C Temperatur
9°C Duggpunkt
67% Fugtighed



Vind
6 KM/T
3 MPT
1 M/S
3 KNOB



-1°
VRB
Nuværende forhold

Partly Cloudy with Light Rain Delvis skyet , let Regn
Tryk 1013 (hPa) - 29.91 (inHg)
Sigt 6 (mil) - 10 (km)
Lufthavn
Lufthavnskode LGTS

Lokation: Thessaloniki Macedonia International
Afstand: 85 (km)

Metar:
METAR LGTS 010150Z VRB03KT 9999 -RA SCT020 15/09 Q1013 NOSIG

Tid: 01-03-2024 03:50 EET